Elsie, Michigan
Current Conditions -  °F | °C
As of 6:13 PM on Wednesday 22 Oct 2014 (Local Time) from KRNP Reporting Station
Overcast Overcast  
Wind Chill: 47°   Ceiling: 2300
Heat Index: 47°   Visibility: 10mi
Dew Point: 39°   Wind: 3mph
Humidity: 73%   Direction: 10°N
Pressure: 30.31"   Gusts: NA
Location:  43.09°N, 84.39°W
Report Text: KRNP 222213Z AUTO 01003KT 10SM OVC023 08/04 A3031 RMK AO2 T00830038
Loading
Personal Weather Stations






























Interactive Weather Map
Tropical Storm Tracking
New forecast layout! Learn more

10-Day Weather Forecast

Advertisements
Track Severe Weather on mobile